KGAD/GAD METAR and TAF weather

Enter ICAO airport designator
Station Type Date Time Source
KGAD METAR 2020/01/23 05:56 UTC NOAA

KGAD 230556Z AUTO 07007KT 10SM CLR 04/M05 A3024 RMK AO2 SLP248 T00391050 10044 20017 400831083 58005


Station Type Date Time Source
KGAD Decoded METAR 2020/01/23 05:56 UTC NOAA

Gadsden, Gadsden Municipal Airport, AL, United States (KGAD) 33-58N 086-05W
Jan 23, 2020 - 12:56 AM EST / 2020.01.23 0556 UTC
Wind: from the ENE (070 degrees) at 8 MPH (7 KT):0
Visibility: 10 mile(s):0
Sky conditions: clear
Temperature: 39.0 F (3.9 C)
Dew Point: 23.0 F (-5.0 C)
Relative Humidity: 52%
Pressure (altimeter): 30.24 in. Hg (1024 hPa)
Pressure tendency: 0.01 inches (0.5 hPa) lower than three hours ago
ob: KGAD 230556Z AUTO 07007KT 10SM CLR 04/M05 A3024 RMK AO2 SLP248 T00391050 10044 20017 400831083 58005
cycle: 6

Station Type Date Time Source
KGAD TAF UTC NOAA

Error!

Example: see airport list